Time;durP1;ratioP1;P1;durP2;ratioP2;P2;SDS_P1;SDS_P2;PMS_P1;PMS_P2;Temp;Humidity;BMP_temperature;BMP_pressure;BME280_temperature;BME280_humidity;BME280_pressure;Samples;Min_cycle;Max_cycle;Signal;HPM_P1;HPM_P2
2021/11/04 00:02:28;;;;;;;10.18;9.18;;;;;;;10.21;87.66;98694.47;10046596;29;20160;-68
2021/11/04 00:07:30;;;;;;;9.98;8.98;;;;;;;10.32;87.28;98674.75;10060753;29;20129;-67
2021/11/04 00:12:31;;;;;;;9.80;8.90;;;;;;;10.28;87.17;98668.06;10062434;29;20065;-67
2021/11/04 00:17:33;;;;;;;10.40;9.35;;;;;;;10.30;86.99;98670.56;10057603;29;20136;-67
2021/11/04 00:22:35;;;;;;;10.18;9.18;;;;;;;10.30;86.96;98667.91;10064157;29;20490;-67
2021/11/04 00:27:37;;;;;;;10.38;9.48;;;;;;;10.19;87.72;98653.06;10055622;29;20053;-67
2021/11/04 00:32:51;;;;;;;9.75;8.95;;;;;;;10.17;87.22;98634.63;10054709;29;20523;-66
2021/11/04 00:37:53;;;;;;;10.80;9.20;;;;;;;10.20;87.38;98628.97;10070166;29;20081;-68
2021/11/04 00:42:55;;;;;;;9.98;9.10;;;;;;;10.24;87.32;98592.28;10062009;29;20101;-69
2021/11/04 00:47:56;;;;;;;11.30;10.30;;;;;;;10.15;87.48;98590.56;10052436;29;20139;-68
2021/11/04 00:52:58;;;;;;;10.45;9.48;;;;;;;10.24;87.72;98594.94;10064452;29;20108;-67
2021/11/04 00:57:59;;;;;;;12.20;11.13;;;;;;;10.24;87.09;98610.91;10062183;29;20412;-67
2021/11/04 01:03:01;;;;;;;11.43;10.32;;;;;;;10.25;87.61;98609.88;10056547;29;20077;-67
2021/11/04 01:08:03;;;;;;;12.02;10.77;;;;;;;10.21;87.24;98633.31;10050995;29;20449;-67
2021/11/04 01:13:04;;;;;;;12.02;10.93;;;;;;;10.22;87.20;98635.00;10068723;29;20515;-67
2021/11/04 01:18:06;;;;;;;12.18;10.98;;;;;;;10.18;87.13;98646.13;10064639;29;20085;-67
2021/11/04 01:23:07;;;;;;;12.60;11.40;;;;;;;10.18;87.44;98630.97;10061695;29;20057;-67
2021/11/04 01:28:09;;;;;;;11.38;10.27;;;;;;;10.25;86.67;98616.06;10058943;29;20565;-67
2021/11/04 01:33:10;;;;;;;12.32;11.15;;;;;;;10.21;86.88;98614.72;10064804;29;20046;-67
2021/11/04 01:38:12;;;;;;;12.23;11.05;;;;;;;10.19;86.73;98608.72;10055767;29;20072;-67
2021/11/04 01:43:14;;;;;;;12.50;11.40;;;;;;;10.19;86.92;98616.72;10063494;29;20053;-67
2021/11/04 01:48:17;;;;;;;12.73;11.73;;;;;;;10.24;87.05;98619.69;10053033;29;20079;-68
2021/11/04 01:53:20;;;;;;;14.73;11.48;;;;;;;10.24;86.58;98632.19;10064639;29;20477;-68
2021/11/04 01:58:21;;;;;;;11.57;10.45;;;;;;;10.14;87.01;98634.94;10053368;29;20080;-69
2021/11/04 02:03:44;;;;;;;12.10;10.90;;;;;;;10.14;88.06;98648.25;10051956;29;20564;-69
2021/11/04 02:09:00;;;;;;;11.93;10.82;;;;;;;10.19;87.29;98659.25;10078395;29;20748;-69
2021/11/04 02:14:10;;;;;;;11.45;10.32;;;;;;;10.21;86.82;98667.88;10056182;29;20227;-68
2021/11/04 02:19:25;;;;;;;10.43;9.52;;;;;;;10.27;87.38;98664.59;10051533;29;20057;-69
2021/11/04 02:24:38;;;;;;;12.57;11.35;;;;;;;10.29;86.50;98644.97;10068967;29;20061;-68
2021/11/04 02:29:41;;;;;;;13.20;11.88;;;;;;;10.21;84.95;98645.78;10068656;29;20084;-68
2021/11/04 02:34:43;;;;;;;13.83;12.50;;;;;;;10.26;85.73;98638.16;10056418;29;20143;-68
2021/11/04 02:39:46;;;;;;;13.55;12.30;;;;;;;10.37;85.99;98629.06;10053425;29;20136;-68
2021/11/04 02:44:48;;;;;;;14.48;12.70;;;;;;;10.35;86.36;98609.78;10059600;29;20044;-69
2021/11/04 02:49:52;;;;;;;13.75;12.35;;;;;;;10.45;86.40;98610.50;10055948;29;20487;-68
2021/11/04 02:54:55;;;;;;;16.35;14.38;;;;;;;10.40;85.89;98613.63;10056743;29;20069;-68
2021/11/04 02:59:57;;;;;;;14.30;12.77;;;;;;;10.35;86.51;98615.13;10047968;29;20101;-69
2021/11/04 03:04:58;;;;;;;13.05;11.55;;;;;;;10.35;86.60;98615.13;10052471;29;20537;-66
2021/11/04 03:10:00;;;;;;;11.95;10.88;;;;;;;10.32;86.98;98620.72;10053532;29;20142;-66
2021/11/04 03:15:03;;;;;;;12.73;11.63;;;;;;;10.34;86.46;98629.41;10058172;29;20129;-68
2021/11/04 03:20:06;;;;;;;15.52;14.07;;;;;;;10.34;86.46;98634.72;10058026;29;20508;-68
2021/11/04 03:25:08;;;;;;;15.23;13.82;;;;;;;10.33;86.56;98654.28;10050698;29;20139;-69
2021/11/04 03:30:14;;;;;;;17.42;15.73;;;;;;;10.26;86.15;98667.41;10047012;29;20045;-68
2021/11/04 03:35:17;;;;;;;16.45;14.95;;;;;;;10.08;85.26;98670.16;10057499;29;20147;-68
2021/11/04 03:40:20;;;;;;;18.77;16.35;;;;;;;10.04;86.42;98676.78;10049539;29;20132;-67
2021/11/04 03:45:22;;;;;;;18.27;16.38;;;;;;;9.97;85.62;98670.41;10054992;29;20053;-68
2021/11/04 03:50:26;;;;;;;17.55;15.75;;;;;;;10.03;86.56;98681.25;10077936;29;20049;-69
2021/11/04 03:55:31;;;;;;;17.83;16.03;;;;;;;10.13;86.37;98673.16;10058458;29;20053;-68
2021/11/04 04:00:32;;;;;;;17.00;15.20;;;;;;;10.18;86.22;98678.03;10053313;29;20316;-67
2021/11/04 04:05:34;;;;;;;18.30;16.40;;;;;;;10.21;85.76;98681.19;10054534;29;20045;-68
2021/11/04 04:10:36;;;;;;;16.92;15.23;;;;;;;10.22;85.86;98684.66;10062399;29;20090;-67
2021/11/04 04:15:37;;;;;;;18.23;16.42;;;;;;;10.16;85.12;98675.50;10058135;29;20100;-67
2021/11/04 04:20:38;;;;;;;16.23;14.52;;;;;;;10.16;85.17;98675.50;10053563;29;20569;-67
2021/11/04 04:25:40;;;;;;;17.45;15.57;;;;;;;10.19;85.71;98679.66;10063068;29;25214;-67
2021/11/04 04:30:41;;;;;;;16.92;15.23;;;;;;;10.34;85.79;98669.28;10056171;29;20121;-67
2021/11/04 04:35:43;;;;;;;16.92;15.23;;;;;;;10.31;85.57;98661.59;10077288;29;20090;-67
2021/11/04 04:40:44;;;;;;;16.88;15.23;;;;;;;10.33;84.89;98652.50;10052364;29;20565;-67
2021/11/04 04:45:46;;;;;;;16.55;14.98;;;;;;;10.33;85.24;98655.16;10056307;29;20421;-67
2021/11/04 04:50:48;;;;;;;16.17;14.48;;;;;;;10.31;85.09;98645.66;10055633;29;20536;-67
2021/11/04 04:55:49;;;;;;;16.00;14.40;;;;;;;10.34;85.77;98650.66;10057007;29;20666;-66
2021/11/04 05:00:51;;;;;;;15.40;13.80;;;;;;;10.44;85.14;98646.06;10051355;29;20158;-68
2021/11/04 05:05:52;;;;;;;16.52;14.23;;;;;;;10.44;85.18;98635.41;10051566;29;20119;-68
2021/11/04 05:10:54;;;;;;;15.30;13.73;;;;;;;10.45;85.76;98639.75;10058206;29;20416;-67
2021/11/04 05:15:55;;;;;;;15.07;13.57;;;;;;;10.45;85.15;98631.78;10055644;29;20061;-67
2021/11/04 05:20:57;;;;;;;16.13;14.50;;;;;;;10.41;85.62;98635.75;10053386;29;20137;-67
2021/11/04 05:25:58;;;;;;;15.35;13.75;;;;;;;10.34;85.45;98634.72;10058129;29;20693;-67
2021/11/04 05:31:01;;;;;;;13.73;12.32;;;;;;;9.90;86.83;98633.84;10066210;29;20290;-67
2021/11/04 05:36:03;;;;;;;15.25;13.65;;;;;;;9.85;87.87;98640.66;10052373;29;20061;-67
2021/11/04 05:41:05;;;;;;;17.42;14.32;;;;;;;9.70;89.57;98638.56;10050212;29;20500;-67
2021/11/04 05:46:06;;;;;;;16.17;11.55;;;;;;;9.42;88.19;98637.88;10062966;29;20477;-67
2021/11/04 05:51:08;;;;;;;11.00;9.90;;;;;;;8.95;88.62;98639.03;10041944;29;20055;-67
2021/11/04 05:56:10;;;;;;;10.23;8.73;;;;;;;9.05;90.24;98649.53;10046369;29;20189;-67
2021/11/04 06:01:12;;;;;;;11.05;9.70;;;;;;;9.15;87.98;98655.59;10047675;29;20053;-67
2021/11/04 06:06:13;;;;;;;9.63;8.52;;;;;;;9.44;87.74;98666.94;10045464;29;20449;-67
2021/11/04 06:11:16;;;;;;;8.95;7.82;;;;;;;9.64;86.23;98675.56;10044839;29;20084;-67
2021/11/04 06:16:17;;;;;;;10.15;7.75;;;;;;;9.65;85.22;98682.53;10041523;29;20053;-66
2021/11/04 06:21:19;;;;;;;9.38;7.95;;;;;;;9.53;85.20;98696.09;10040499;29;20171;-67
2021/11/04 06:26:21;;;;;;;8.93;7.47;;;;;;;9.73;85.71;98701.19;10040680;29;20056;-68
2021/11/04 06:31:29;;;;;;;8.82;7.93;;;;;;;9.98;84.03;98704.81;10370020;27;20440;-59
2021/11/04 06:36:30;;;;;;;7.07;6.38;;;;;;;10.08;83.61;98728.66;10358332;28;20140;-59
2021/11/04 06:41:32;;;;;;;5.97;5.38;;;;;;;9.88;82.69;98715.56;10349479;28;20045;-59
2021/11/04 06:46:36;;;;;;;6.70;5.70;;;;;;;10.12;82.83;98747.75;10352570;28;20132;-60
2021/11/04 06:51:41;;;;;;;7.65;5.57;;;;;;;10.19;83.24;98752.31;10347276;28;20049;-60
2021/11/04 06:56:45;;;;;;;6.18;5.50;;;;;;;10.17;82.20;98756.13;10347402;28;20196;-60
2021/11/04 07:01:54;;;;;;;5.85;4.90;;;;;;;10.22;81.89;98775.94;10346275;28;20574;-60
2021/11/04 07:07:17;;;;;;;6.72;5.75;;;;;;;10.24;81.84;98784.56;10344669;28;20057;-60
2021/11/04 07:12:18;;;;;;;5.50;4.82;;;;;;;10.22;80.89;98799.88;10344841;28;20050;-60
2021/11/04 07:17:20;;;;;;;7.20;4.53;;;;;;;10.12;81.13;98811.56;10345524;28;20046;-60
2021/11/04 07:22:49;;;;;;;5.45;4.38;;;;;;;10.24;81.10;98827.13;10345470;28;20049;-61
2021/11/04 07:27:59;;;;;;;4.45;4.05;;;;;;;10.20;80.90;98833.75;10352651;28;20161;-60
2021/11/04 07:33:05;;;;;;;4.68;4.15;;;;;;;10.34;80.92;98845.66;10350120;28;20081;-59
2021/11/04 07:38:09;;;;;;;5.13;3.60;;;;;;;9.94;80.51;98846.16;10342963;28;20087;-60
2021/11/04 07:43:10;;;;;;;5.10;3.97;;;;;;;9.65;82.97;98852.56;10317862;28;20531;-61
2021/11/04 07:48:13;;;;;;;5.00;3.83;;;;;;;10.00;83.40;98864.19;10317937;28;20058;-60
2021/11/04 07:53:14;;;;;;;4.35;3.72;;;;;;;10.16;82.28;98858.97;10313090;28;20066;-60
2021/11/04 07:58:16;;;;;;;3.78;3.47;;;;;;;10.11;81.59;98850.63;10314378;28;20050;-61
2021/11/04 08:03:17;;;;;;;4.38;3.85;;;;;;;10.13;80.69;98856.63;10314274;28;20077;-59
2021/11/04 08:08:19;;;;;;;3.60;3.30;;;;;;;10.05;80.71;98856.56;10326164;28;20575;-59
2021/11/04 08:13:21;;;;;;;3.55;3.25;;;;;;;9.80;81.37;98860.84;10323694;28;20131;-60
2021/11/04 08:18:24;;;;;;;4.47;4.07;;;;;;;9.97;80.71;98867.97;10320979;28;20228;-61
2021/11/04 08:23:26;;;;;;;4.85;4.38;;;;;;;10.03;81.61;98871.84;10321005;28;20277;-59
2021/11/04 08:28:27;;;;;;;5.80;5.03;;;;;;;9.93;80.93;98881.72;10317416;28;20116;-58
2021/11/04 08:33:29;;;;;;;7.45;6.47;;;;;;;9.90;81.31;98878.38;10319580;28;20200;-59
2021/11/04 08:38:30;;;;;;;6.53;5.93;;;;;;;10.10;81.06;98886.16;10318253;28;20050;-60
2021/11/04 08:43:32;;;;;;;8.43;7.63;;;;;;;9.81;79.68;98889.09;10316023;28;20050;-59
2021/11/04 08:48:34;;;;;;;10.15;8.75;;;;;;;9.86;78.94;98890.31;10315126;28;20062;-59
2021/11/04 08:53:36;;;;;;;11.00;9.82;;;;;;;9.77;79.12;98899.19;10313980;28;20057;-59
2021/11/04 08:58:37;;;;;;;13.40;10.48;;;;;;;9.44;80.16;98898.00;10314102;28;20112;-60
2021/11/04 09:03:39;;;;;;;13.48;10.98;;;;;;;9.48;78.87;98889.59;10313375;28;20942;-64
2021/11/04 09:08:40;;;;;;;14.35;11.82;;;;;;;9.76;80.31;98912.63;10314087;28;20057;-59
2021/11/04 09:13:44;;;;;;;12.63;10.67;;;;;;;9.76;79.62;98913.47;10318092;28;20061;-58
2021/11/04 09:18:45;;;;;;;12.35;10.60;;;;;;;9.84;78.65;98915.38;10317944;28;20140;-59
2021/11/04 09:23:48;;;;;;;12.13;10.18;;;;;;;9.85;75.75;98928.50;10314078;28;20487;-63
2021/11/04 09:28:49;;;;;;;16.00;10.90;;;;;;;9.95;76.53;98933.72;10318615;28;20081;-60
2021/11/04 09:33:53;;;;;;;16.40;11.65;;;;;;;10.26;76.19;98936.00;10317713;28;20415;-60
2021/11/04 09:38:58;;;;;;;11.90;9.95;;;;;;;10.38;74.42;98944.63;10313251;28;20124;-60
2021/11/04 09:44:03;;;;;;;11.80;10.15;;;;;;;10.20;74.79;98937.44;10314731;28;20052;-59
2021/11/04 09:49:04;;;;;;;12.68;10.38;;;;;;;10.32;75.36;98947.88;10313956;28;20495;-59
2021/11/04 09:54:06;;;;;;;10.15;8.18;;;;;;;10.51;73.68;98961.00;10311036;28;20920;-59
2021/11/04 09:59:07;;;;;;;8.15;6.38;;;;;;;10.21;74.02;98971.03;10313892;28;20048;-61
2021/11/04 10:04:09;;;;;;;10.23;7.40;;;;;;;10.24;75.32;98981.38;10314521;28;20050;-59
2021/11/04 10:09:11;;;;;;;8.75;7.22;;;;;;;10.39;74.07;98989.69;10313630;28;20077;-59
2021/11/04 10:14:15;;;;;;;9.32;6.68;;;;;;;10.08;73.78;98979.38;10314093;28;20132;-60
2021/11/04 10:19:18;;;;;;;7.93;6.00;;;;;;;9.90;75.85;98992.66;10312887;28;20152;-59
2021/11/04 10:24:25;;;;;;;7.22;5.93;;;;;;;10.15;74.32;98984.09;10313289;28;20282;-60
2021/11/04 10:29:37;;;;;;;7.60;5.38;;;;;;;10.60;74.27;98997.34;10309188;28;20182;-59
2021/11/04 10:34:39;;;;;;;5.90;5.30;;;;;;;10.66;73.00;98998.56;10325818;28;20058;-61
2021/11/04 10:39:42;;;;;;;7.47;5.60;;;;;;;10.85;71.52;99005.47;10313695;28;20499;-60
2021/11/04 10:44:43;;;;;;;9.00;6.65;;;;;;;10.75;70.49;99010.09;10311439;28;20120;-59
2021/11/04 10:49:47;;;;;;;8.40;7.18;;;;;;;10.63;70.46;99011.31;10313674;28;20147;-63
2021/11/04 10:54:51;;;;;;;12.35;8.48;;;;;;;10.67;69.29;99018.81;10310716;28;20553;-60
2021/11/04 10:59:53;;;;;;;10.50;8.55;;;;;;;10.47;69.25;99014.69;10309601;28;20137;-59
2021/11/04 11:04:54;;;;;;;12.43;10.27;;;;;;;10.71;70.51;99030.03;10314053;28;20304;-59
2021/11/04 11:09:56;;;;;;;14.00;9.60;;;;;;;10.74;67.99;99038.53;10312416;28;20200;-59
2021/11/04 11:14:58;;;;;;;14.43;11.32;;;;;;;10.74;67.20;99040.34;10327630;28;20062;-59
2021/11/04 11:19:59;;;;;;;14.32;11.73;;;;;;;10.32;68.64;99051.59;10319693;28;20057;-60
2021/11/04 11:25:01;;;;;;;18.95;13.65;;;;;;;10.59;68.00;99054.19;10330708;28;20602;-60
2021/11/04 11:30:10;;;;;;;19.75;13.00;;;;;;;10.39;67.29;99061.50;10316557;28;20057;-60
2021/11/04 11:35:20;;;;;;;16.30;12.07;;;;;;;10.51;67.51;99066.59;10316263;28;20435;-60
2021/11/04 11:40:30;;;;;;;17.83;13.35;;;;;;;10.47;67.39;99082.03;10337717;28;20430;-60
2021/11/04 11:45:36;;;;;;;18.42;13.75;;;;;;;10.33;67.25;99079.84;10316441;28;20769;-60
2021/11/04 11:50:43;;;;;;;17.95;12.73;;;;;;;10.16;67.14;99084.16;10317716;28;20056;-60
2021/11/04 11:55:47;;;;;;;16.35;12.38;;;;;;;10.47;68.27;99092.66;10326218;28;20514;-59
2021/11/04 12:01:09;;;;;;;16.80;10.68;;;;;;;10.60;65.77;99087.81;10318947;28;20220;-59
2021/11/04 12:06:11;;;;;;;14.82;11.10;;;;;;;10.76;66.36;99103.09;10330625;28;20057;-60
2021/11/04 12:11:35;;;;;;;18.17;11.52;;;;;;;10.57;65.34;99106.75;10321467;28;20463;-61
2021/11/04 12:16:37;;;;;;;14.25;10.35;;;;;;;10.30;66.23;99112.06;10316800;28;20050;-60
2021/11/04 12:21:39;;;;;;;14.05;9.65;;;;;;;10.16;66.58;99106.25;10320232;28;20344;-59
2021/11/04 12:26:42;;;;;;;13.40;11.02;;;;;;;10.34;67.50;99119.63;10316142;28;20400;-61
2021/11/04 12:31:48;;;;;;;14.10;10.30;;;;;;;10.43;66.46;99128.53;10316979;28;20472;-60
2021/11/04 12:36:52;;;;;;;14.73;10.63;;;;;;;10.32;66.69;99136.72;10316644;28;20200;-61
2021/11/04 12:41:59;;;;;;;13.20;9.60;;;;;;;10.09;66.00;99147.75;10321027;28;20089;-61
2021/11/04 12:47:02;;;;;;;12.82;9.07;;;;;;;10.02;66.62;99157.28;10312233;28;20053;-60
2021/11/04 12:52:06;;;;;;;11.88;8.80;;;;;;;9.98;66.17;99167.38;10311135;28;20058;-60
2021/11/04 12:57:12;;;;;;;10.98;8.02;;;;;;;10.23;68.08;99181.81;10309879;28;20065;-60
2021/11/04 13:02:30;;;;;;;11.90;9.32;;;;;;;10.31;66.68;99194.38;10311326;28;20058;-59
2021/11/04 13:07:54;;;;;;;11.70;8.45;;;;;;;10.40;66.41;99206.84;10313395;28;20041;-60
2021/11/04 13:13:05;;;;;;;10.60;8.57;;;;;;;10.21;66.06;99215.72;10313334;28;20045;-59
2021/11/04 13:18:08;;;;;;;10.75;7.18;;;;;;;10.22;65.32;99217.41;10315702;28;20053;-59
2021/11/04 13:23:11;;;;;;;10.65;8.23;;;;;;;10.07;66.40;99219.69;10314139;28;20056;-59
2021/11/04 13:28:22;;;;;;;10.73;7.88;;;;;;;10.13;66.86;99223.56;10315307;28;20053;-59
2021/11/04 13:33:32;;;;;;;11.02;8.23;;;;;;;10.16;67.56;99227.75;10328447;28;20054;-65
2021/11/04 13:38:47;;;;;;;10.20;8.48;;;;;;;10.46;67.86;99234.66;10333847;28;20077;-63
2021/11/04 13:43:50;;;;;;;12.93;9.48;;;;;;;10.51;68.02;99243.06;10315332;28;20065;-59
2021/11/04 13:48:57;;;;;;;12.90;9.30;;;;;;;10.50;67.47;99251.19;10315336;28;20050;-60
2021/11/04 13:54:17;;;;;;;10.98;8.05;;;;;;;10.41;67.24;99247.56;10316356;28;20045;-60
2021/11/04 13:59:32;;;;;;;10.95;8.27;;;;;;;10.33;66.12;99245.66;10316499;28;20458;-60
2021/11/04 14:04:47;;;;;;;9.10;7.35;;;;;;;10.47;66.88;99273.59;10319817;28;20058;-61
2021/11/04 14:10:09;;;;;;;8.95;7.28;;;;;;;10.27;65.50;99272.81;10314408;28;20195;-60
2021/11/04 14:15:19;;;;;;;9.63;7.45;;;;;;;10.06;67.77;99278.34;10326599;28;20543;-59
2021/11/04 14:20:23;;;;;;;8.63;7.72;;;;;;;10.12;68.01;99287.53;10329231;28;20076;-60
2021/11/04 14:25:26;;;;;;;10.48;7.85;;;;;;;10.13;66.93;99286.56;10313181;28;20507;-63
2021/11/04 14:30:30;;;;;;;10.10;7.50;;;;;;;9.96;66.99;99294.28;10317562;28;20068;-60
2021/11/04 14:35:32;;;;;;;10.68;8.07;;;;;;;9.98;67.07;99299.47;10318228;28;20141;-60
2021/11/04 14:40:34;;;;;;;10.30;7.43;;;;;;;10.05;66.81;99308.56;10314826;28;20156;-60
2021/11/04 14:45:35;;;;;;;9.90;6.43;;;;;;;10.12;66.57;99312.31;10312354;28;20076;-60
2021/11/04 14:50:39;;;;;;;8.40;6.70;;;;;;;10.14;66.46;99326.31;10316930;28;20127;-61
2021/11/04 14:55:44;;;;;;;9.65;6.93;;;;;;;10.11;67.76;99329.25;10320627;28;20412;-60
2021/11/04 15:00:45;;;;;;;9.00;6.47;;;;;;;10.17;68.06;99334.00;10318610;28;20061;-61
2021/11/04 15:05:48;;;;;;;8.57;6.28;;;;;;;10.24;67.26;99342.25;10320781;28;20411;-60
2021/11/04 15:10:50;;;;;;;8.65;5.57;;;;;;;10.26;68.48;99349.09;10321795;28;20704;-60
2021/11/04 15:15:52;;;;;;;9.13;6.05;;;;;;;10.28;69.44;99364.91;10323434;28;20053;-60
2021/11/04 15:20:56;;;;;;;7.93;6.13;;;;;;;10.10;71.17;99370.09;10322167;28;20078;-60
2021/11/04 15:25:58;;;;;;;4.97;4.43;;;;;;;9.85;70.63;99379.53;10317303;28;20065;-60
2021/11/04 15:30:59;;;;;;;7.65;4.85;;;;;;;9.88;72.29;99380.06;10319122;28;20108;-60
2021/11/04 15:36:02;;;;;;;5.10;3.55;;;;;;;9.91;72.32;99369.16;10319457;28;20494;-60
2021/11/04 15:41:03;;;;;;;5.60;3.10;;;;;;;10.05;71.97;99388.31;10318241;28;20112;-59
2021/11/04 15:46:04;;;;;;;5.60;3.70;;;;;;;9.83;72.20;99390.31;10319894;28;20499;-60
2021/11/04 15:51:07;;;;;;;5.30;3.85;;;;;;;9.78;73.01;99404.97;10315723;28;20216;-63
2021/11/04 15:56:10;;;;;;;4.53;4.10;;;;;;;9.89;72.92;99399.50;10318102;28;20124;-60
2021/11/04 16:01:13;;;;;;;6.25;3.25;;;;;;;9.76;73.54;99412.22;10316864;28;20651;-60
2021/11/04 16:06:35;;;;;;;4.30;3.53;;;;;;;9.75;73.27;99419.38;10317721;28;20125;-60
2021/11/04 16:11:38;;;;;;;4.80;3.15;;;;;;;9.65;74.75;99431.81;10317696;28;20060;-60
2021/11/04 16:16:42;;;;;;;5.40;3.90;;;;;;;9.82;75.40;99433.81;10316189;28;20050;-60
2021/11/04 16:21:44;;;;;;;7.22;3.20;;;;;;;9.83;75.96;99440.81;10318514;28;20049;-60
2021/11/04 16:26:45;;;;;;;6.82;3.25;;;;;;;9.90;74.85;99449.88;10315902;28;20062;-60
2021/11/04 16:31:46;;;;;;;3.55;2.92;;;;;;;9.77;73.87;99453.78;10317337;28;20081;-60
2021/11/04 16:37:23;;;;;;;3.97;2.92;;;;;;;9.75;75.08;99469.03;10317627;28;20111;-61
2021/11/04 16:42:25;;;;;;;2.90;2.53;;;;;;;9.71;73.63;99473.78;10307900;28;20523;-60
2021/11/04 16:47:28;;;;;;;2.58;2.33;;;;;;;9.53;73.11;99474.47;10319332;28;20073;-60
2021/11/04 16:52:30;;;;;;;3.42;2.85;;;;;;;9.63;73.27;99481.59;10317915;28;20054;-60
2021/11/04 16:57:31;;;;;;;3.35;2.17;;;;;;;9.66;73.31;99476.84;10314516;28;20101;-60
2021/11/04 17:02:33;;;;;;;3.28;2.45;;;;;;;9.71;74.16;99479.94;10314512;28;20054;-60
2021/11/04 17:07:36;;;;;;;4.38;2.47;;;;;;;9.66;73.44;99491.97;10314134;28;20058;-60
2021/11/04 17:12:38;;;;;;;3.65;2.50;;;;;;;9.67;73.33;99483.84;10313100;28;20043;-60
2021/11/04 17:17:40;;;;;;;5.30;3.05;;;;;;;9.64;74.25;99496.59;10315393;28;20050;-60
2021/11/04 17:22:44;;;;;;;5.93;4.03;;;;;;;9.72;74.63;99513.50;10317810;28;20127;-60
2021/11/04 17:27:46;;;;;;;8.38;3.70;;;;;;;9.89;74.80;99522.66;10313294;28;20113;-60
2021/11/04 17:32:48;;;;;;;5.50;3.80;;;;;;;10.06;74.74;99531.75;10313064;28;20618;-57
2021/11/04 17:37:55;;;;;;;8.50;5.32;;;;;;;10.21;74.93;99544.69;10317154;28;20673;-58
2021/11/04 17:42:57;;;;;;;5.78;4.82;;;;;;;10.28;75.08;99556.41;10313479;28;20674;-60
2021/11/04 17:47:59;;;;;;;5.75;4.22;;;;;;;10.20;73.73;99557.13;10310295;28;20106;-60
2021/11/04 17:53:01;;;;;;;5.18;4.65;;;;;;;10.16;74.95;99571.66;10310522;28;20056;-60
2021/11/04 17:58:05;;;;;;;5.32;4.80;;;;;;;10.15;75.15;99580.63;10310165;28;20558;-61
2021/11/04 18:03:08;;;;;;;5.95;5.20;;;;;;;10.11;76.39;99581.88;10302976;28;20903;-61
2021/11/04 18:08:10;;;;;;;6.80;4.85;;;;;;;10.19;75.91;99595.34;10336061;28;20097;-65
2021/11/04 18:13:13;;;;;;;8.50;7.70;;;;;;;10.24;76.53;99590.44;10308070;28;20124;-61
2021/11/04 18:18:15;;;;;;;7.55;6.72;;;;;;;9.99;75.07;99593.63;10311843;28;20063;-61
2021/11/04 18:23:16;;;;;;;8.98;6.30;;;;;;;9.94;75.47;99601.13;10309036;28;20110;-61
2021/11/04 18:28:18;;;;;;;7.68;6.07;;;;;;;9.79;74.51;99604.19;10309361;28;20530;-61
2021/11/04 18:33:20;;;;;;;6.25;5.45;;;;;;;9.62;75.58;99615.44;10312607;28;20499;-60
2021/11/04 18:38:22;;;;;;;7.03;5.40;;;;;;;9.51;76.00;99619.03;10329017;28;20423;-60
2021/11/04 18:43:24;;;;;;;6.05;5.50;;;;;;;9.48;75.45;99622.78;10315743;28;20129;-60
2021/11/04 18:48:25;;;;;;;6.13;5.53;;;;;;;9.49;75.93;99624.47;10313419;28;20069;-60
2021/11/04 18:53:29;;;;;;;9.95;6.78;;;;;;;9.53;76.48;99615.28;10314779;28;20080;-60
2021/11/04 18:58:30;;;;;;;5.88;4.75;;;;;;;9.73;74.72;99636.63;10313013;28;20141;-60
2021/11/04 19:03:32;;;;;;;6.32;5.20;;;;;;;9.59;76.18;99639.63;10310702;28;20054;-61
2021/11/04 19:08:34;;;;;;;8.18;7.15;;;;;;;9.84;78.54;99648.97;10311581;28;20053;-63
2021/11/04 19:13:37;;;;;;;8.68;5.85;;;;;;;9.97;77.19;99648.72;10312016;28;20427;-63
2021/11/04 19:18:39;;;;;;;6.78;6.07;;;;;;;9.99;77.36;99652.94;10311815;28;20216;-63
2021/11/04 19:23:43;;;;;;;6.55;5.28;;;;;;;9.79;75.36;99657.34;10310761;28;20064;-64
2021/11/04 19:28:44;;;;;;;6.90;4.68;;;;;;;9.68;75.75;99660.06;10312453;28;20123;-63
2021/11/04 19:33:46;;;;;;;7.53;6.05;;;;;;;9.64;76.89;99661.34;10314495;28;20085;-64
2021/11/04 19:38:47;;;;;;;7.20;5.30;;;;;;;9.36;76.46;99650.41;10319652;28;20693;-61
2021/11/04 19:43:49;;;;;;;6.75;5.53;;;;;;;9.43;78.70;99674.63;10322966;28;20552;-61
2021/11/04 19:48:51;;;;;;;8.20;6.05;;;;;;;9.34;76.74;99684.22;10321948;28;20139;-60
2021/11/04 19:53:52;;;;;;;6.43;5.28;;;;;;;9.23;76.92;99682.44;10319867;28;20146;-61
2021/11/04 19:58:54;;;;;;;7.85;5.82;;;;;;;9.16;76.75;99700.72;10319085;28;20141;-60
2021/11/04 20:03:55;;;;;;;6.50;5.43;;;;;;;9.07;76.93;99705.94;10317231;28;20503;-60
2021/11/04 20:08:57;;;;;;;7.63;6.10;;;;;;;9.22;77.34;99707.34;10318871;28;20153;-60
2021/11/04 20:14:00;;;;;;;6.95;6.25;;;;;;;9.23;76.70;99716.13;10319051;28;20124;-61
2021/11/04 20:19:02;;;;;;;7.38;5.88;;;;;;;9.10;77.29;99725.13;10317543;28;20559;-60
2021/11/04 20:24:04;;;;;;;6.10;4.70;;;;;;;9.02;76.57;99727.56;10318584;28;20049;-61
2021/11/04 20:29:05;;;;;;;7.55;5.40;;;;;;;8.93;77.44;99729.19;10315491;28;20108;-62
2021/11/04 20:34:07;;;;;;;9.55;6.15;;;;;;;8.97;77.91;99735.91;10312622;28;20458;-65
2021/11/04 20:39:10;;;;;;;7.85;5.55;;;;;;;8.99;76.85;99749.06;10316479;28;20053;-61
2021/11/04 20:44:11;;;;;;;6.00;5.40;;;;;;;8.93;77.08;99760.19;10318813;28;20038;-61
2021/11/04 20:49:13;;;;;;;7.38;5.53;;;;;;;8.72;77.68;99758.31;10314113;28;20251;-61
2021/11/04 20:54:14;;;;;;;6.53;5.93;;;;;;;8.90;77.82;99776.34;10318304;28;20057;-61
2021/11/04 20:59:16;;;;;;;5.25;4.63;;;;;;;8.74;77.60;99774.94;10317913;28;20312;-61
2021/11/04 21:04:17;;;;;;;6.43;5.82;;;;;;;8.70;78.11;99784.13;10318028;28;20097;-66
2021/11/04 21:09:19;;;;;;;6.70;5.80;;;;;;;8.68;77.85;99794.03;10310860;28;20078;-61
2021/11/04 21:14:20;;;;;;;6.18;5.57;;;;;;;8.67;78.37;99795.81;10316453;28;20152;-60
2021/11/04 21:19:22;;;;;;;9.50;7.88;;;;;;;8.61;78.72;99809.56;10315336;28;20599;-61
2021/11/04 21:24:25;;;;;;;8.55;6.63;;;;;;;8.53;79.03;99803.19;10318924;28;20122;-61
2021/11/04 21:29:27;;;;;;;6.68;6.00;;;;;;;8.63;79.25;99820.06;10316536;28;20061;-61
2021/11/04 21:34:28;;;;;;;7.90;6.45;;;;;;;8.67;79.15;99816.19;10311346;28;20457;-65
2021/11/04 21:39:30;;;;;;;8.75;7.13;;;;;;;8.66;79.05;99822.47;10308071;28;20083;-60
2021/11/04 21:44:32;;;;;;;9.05;7.45;;;;;;;8.55;79.00;99822.50;10313245;28;20053;-61
2021/11/04 21:49:34;;;;;;;7.97;7.28;;;;;;;8.57;79.33;99820.53;10322943;28;20074;-60
2021/11/04 21:54:36;;;;;;;8.57;7.75;;;;;;;8.62;79.57;99832.50;10321577;28;20272;-60
2021/11/04 21:59:37;;;;;;;8.43;7.63;;;;;;;8.52;79.65;99830.69;10326037;28;20077;-60
2021/11/04 22:04:39;;;;;;;9.25;7.60;;;;;;;8.53;80.37;99827.91;10361490;28;20309;-64
2021/11/04 22:09:40;;;;;;;9.52;8.60;;;;;;;8.56;80.50;99838.28;10365134;28;20092;-60
2021/11/04 22:14:42;;;;;;;10.02;8.15;;;;;;;8.49;80.55;99832.59;10369722;28;20134;-61
2021/11/04 22:19:44;;;;;;;10.63;8.80;;;;;;;8.55;80.40;99854.31;10368888;28;20111;-61
2021/11/04 22:24:45;;;;;;;10.73;9.13;;;;;;;8.41;82.13;99856.22;10374209;28;20149;-60
2021/11/04 22:29:50;;;;;;;9.15;7.57;;;;;;;8.45;81.82;99851.53;10344385;28;20062;-60
2021/11/04 22:34:54;;;;;;;9.73;8.02;;;;;;;8.51;81.57;99861.66;10330777;28;20069;-60
2021/11/04 22:39:56;;;;;;;12.57;9.07;;;;;;;8.45;81.15;99857.69;10330837;28;20119;-60
2021/11/04 22:44:58;;;;;;;9.07;8.20;;;;;;;8.44;82.47;99882.53;10329422;28;20049;-60
2021/11/04 22:49:59;;;;;;;11.35;9.45;;;;;;;8.47;82.78;99884.09;10329661;28;20089;-60
2021/11/04 22:55:02;;;;;;;9.60;8.55;;;;;;;8.59;82.20;99895.56;10316834;28;20058;-61
2021/11/04 23:00:16;;;;;;;9.93;8.95;;;;;;;8.48;81.88;99894.59;10318499;28;20078;-61
2021/11/04 23:05:18;;;;;;;9.80;8.80;;;;;;;8.51;82.25;99911.22;10321975;28;20041;-60
2021/11/04 23:10:20;;;;;;;8.98;8.05;;;;;;;8.68;82.33;99916.06;10328926;28;20103;-61
2021/11/04 23:15:21;;;;;;;11.13;10.02;;;;;;;8.78;81.91;99925.00;10333450;28;20184;-62
2021/11/04 23:25:33;;;;;;;9.57;8.63;;;;;;;8.88;81.23;99922.47;10249398;28;20711;-64
2021/11/04 23:30:36;;;;;;;9.63;8.63;;;;;;;8.91;80.78;99929.34;10250126;28;20055;-67